createdAt,value
2018-07-26T00:00:31.966Z,63.22
2018-07-26T00:01:31.956Z,63.22
2018-07-26T00:02:32.025Z,63.02
2018-07-26T00:03:31.943Z,63.22
2018-07-26T00:04:31.923Z,63.82
2018-07-26T00:05:31.938Z,63.92
2018-07-26T00:06:31.918Z,63.92
2018-07-26T00:07:31.971Z,64.22
2018-07-26T00:08:31.879Z,63.95
2018-07-26T00:09:31.869Z,64.25
2018-07-26T00:10:31.858Z,64.04
2018-07-26T00:11:31.848Z,64.54
2018-07-26T00:12:31.921Z,64.54
2018-07-26T00:13:31.834Z,64.45
2018-07-26T00:14:31.822Z,64.64
2018-07-26T00:15:31.805Z,64.45
2018-07-26T00:16:31.793Z,64.25
2018-07-26T00:17:31.870Z,64.34
2018-07-26T00:18:31.777Z,64.25
2018-07-26T00:19:31.775Z,64.75
2018-07-26T00:20:31.752Z,64.84
2018-07-26T00:21:31.749Z,65.34
2018-07-26T00:22:31.806Z,64.94
2018-07-26T00:23:31.722Z,64.97
2018-07-26T00:24:31.716Z,64.97
2018-07-26T00:25:31.697Z,65.08
2018-07-26T00:26:31.685Z,64.97
2018-07-26T00:27:31.743Z,65.47
2018-07-26T00:28:31.670Z,65.37
2018-07-26T00:29:31.664Z,65.37
2018-07-26T00:30:31.642Z,65.87
2018-07-26T00:31:31.632Z,65.27
2018-07-26T00:32:31.713Z,66.07
2018-07-26T00:33:31.606Z,66.17
2018-07-26T00:34:31.593Z,65.57
2018-07-26T00:35:31.590Z,65.47
2018-07-26T00:36:31.573Z,65.47
2018-07-26T00:37:31.635Z,66.00
2018-07-26T00:38:31.555Z,65.97
2018-07-26T00:39:31.548Z,66.17
2018-07-26T00:40:31.531Z,66.10
2018-07-26T00:41:31.543Z,66.20
2018-07-26T00:42:31.601Z,66.90
2018-07-26T00:43:31.493Z,66.00
2018-07-26T00:44:31.490Z,66.60
2018-07-26T00:45:31.491Z,66.53
2018-07-26T00:46:31.467Z,66.70
2018-07-26T00:47:31.458Z,67.10
2018-07-26T00:48:31.525Z,66.83
2018-07-26T00:49:33.153Z,66.93
2018-07-26T00:50:31.405Z,67.03
2018-07-26T00:51:31.397Z,67.00
2018-07-26T00:52:31.402Z,67.00
2018-07-26T00:53:31.463Z,67.20
2018-07-26T00:54:31.374Z,66.63
2018-07-26T00:55:31.364Z,66.73
2018-07-26T00:56:31.357Z,66.40
2018-07-26T00:57:31.353Z,66.50
2018-07-26T00:58:31.413Z,66.33
2018-07-26T00:59:31.322Z,66.83
2018-07-26T01:00:31.328Z,67.13
2018-07-26T01:01:31.314Z,67.63
2018-07-26T01:02:31.294Z,66.83
2018-07-26T01:03:31.355Z,66.83
2018-07-26T01:04:31.275Z,66.53
2018-07-26T01:05:31.261Z,66.63
2018-07-26T01:06:31.257Z,66.83
2018-07-26T01:07:31.257Z,66.43
2018-07-26T01:08:31.339Z,67.03
2018-07-26T01:09:31.267Z,67.57
2018-07-26T01:10:31.212Z,67.33
2018-07-26T01:11:31.193Z,67.57
2018-07-26T01:12:31.176Z,67.36
2018-07-26T01:13:31.245Z,67.46
2018-07-26T01:14:31.140Z,67.36
2018-07-26T01:15:31.149Z,67.36
2018-07-26T01:16:31.132Z,67.76
2018-07-26T01:17:31.148Z,67.46
2018-07-26T01:18:31.178Z,67.36
2018-07-26T01:19:31.102Z,67.76
2018-07-26T01:20:31.089Z,67.96
2018-07-26T01:21:31.097Z,67.96
2018-07-26T01:22:31.096Z,67.86
2018-07-26T01:23:31.145Z,67.57
2018-07-26T01:24:31.049Z,67.86
2018-07-26T01:25:31.034Z,67.86
2018-07-26T01:26:31.023Z,67.76
2018-07-26T01:27:31.012Z,67.76
2018-07-26T01:28:31.074Z,67.46
2018-07-26T01:29:30.995Z,68.40
2018-07-26T01:30:31.001Z,68.29
2018-07-26T01:31:30.968Z,68.59
2018-07-26T01:32:30.965Z,68.49
2018-07-26T01:33:31.020Z,68.49
2018-07-26T01:34:30.942Z,68.10
2018-07-26T01:35:30.919Z,68.49
2018-07-26T01:36:30.925Z,68.89
2018-07-26T01:37:30.901Z,68.49
2018-07-26T01:38:30.992Z,68.70
2018-07-26T01:39:30.887Z,68.40
2018-07-26T01:40:30.867Z,67.99
2018-07-26T01:41:30.860Z,68.29
2018-07-26T01:42:30.850Z,67.49
2018-07-26T01:43:30.918Z,67.40
2018-07-26T01:44:30.832Z,67.40
2018-07-26T01:45:30.822Z,67.80
2018-07-26T01:46:30.805Z,67.60
2018-07-26T01:47:30.793Z,67.90
2018-07-26T01:48:30.858Z,68.10
2018-07-26T01:49:30.777Z,67.99
2018-07-26T01:50:30.758Z,68.29
2018-07-26T01:51:30.750Z,68.29
2018-07-26T01:52:30.732Z,67.99
2018-07-26T01:53:30.800Z,67.99
2018-07-26T01:54:30.713Z,67.69
2018-07-26T01:55:30.710Z,68.49
2018-07-26T01:56:30.692Z,68.40
2018-07-26T01:57:30.697Z,68.52
2018-07-26T01:58:30.736Z,68.19
2018-07-26T01:59:30.677Z,68.73
2018-07-26T02:00:30.646Z,68.82
2018-07-26T02:01:30.640Z,68.63
2018-07-26T02:02:30.624Z,69.02
2018-07-26T02:03:30.698Z,69.02
2018-07-26T02:04:30.612Z,68.52
2018-07-26T02:05:30.599Z,68.43
2018-07-26T02:06:30.582Z,68.52
2018-07-26T02:07:30.571Z,69.13
2018-07-26T02:08:30.626Z,68.93
2018-07-26T02:09:30.554Z,69.23
2018-07-26T02:10:30.548Z,69.02
2018-07-26T02:11:30.523Z,69.56
2018-07-26T02:12:30.516Z,69.56
2018-07-26T02:13:30.656Z,69.23
2018-07-26T02:14:30.497Z,69.13
2018-07-26T02:15:30.480Z,69.23
2018-07-26T02:16:30.496Z,69.13
2018-07-26T02:17:30.476Z,68.93
2018-07-26T02:18:30.515Z,69.06
2018-07-26T02:19:30.419Z,68.96
2018-07-26T02:20:30.423Z,68.96
2018-07-26T02:21:30.429Z,68.86
2018-07-26T02:22:30.412Z,69.36
2018-07-26T02:23:30.477Z,69.56
2018-07-26T02:24:30.381Z,69.46
2018-07-26T02:25:30.369Z,69.46
2018-07-26T02:26:30.354Z,69.89
2018-07-26T02:27:30.341Z,69.76
2018-07-26T02:28:30.330Z,69.96
2018-07-26T02:29:30.394Z,69.69
2018-07-26T02:30:30.311Z,69.36
2018-07-26T02:31:30.338Z,69.36
2018-07-26T02:32:30.300Z,68.96
2018-07-26T02:33:30.283Z,68.96
2018-07-26T02:39:50.650Z,69.99
2018-07-26T02:40:50.651Z,69.59
2018-07-26T02:41:50.510Z,69.79
2018-07-26T02:42:50.506Z,69.89
2018-07-26T02:43:50.706Z,70.12
2018-07-26T02:44:50.440Z,70.32
2018-07-26T02:45:50.439Z,70.73
2018-07-26T02:46:50.396Z,70.83
2018-07-26T02:47:50.406Z,70.92
2018-07-26T02:53:46.861Z,70.32
2018-07-26T02:54:46.884Z,70.29
2018-07-26T02:55:46.716Z,70.32
2018-07-26T02:56:46.678Z,70.39
2018-07-26T02:57:46.668Z,70.29
2018-07-26T02:58:46.744Z,70.39
2018-07-26T02:59:46.647Z,70.49
2018-07-26T03:00:46.633Z,70.29
2018-07-26T03:01:46.657Z,70.69
2018-07-26T03:02:46.612Z,71.23
2018-07-26T03:03:46.600Z,71.53
2018-07-26T03:04:46.660Z,71.42
2018-07-26T03:05:46.578Z,71.03
2018-07-26T03:06:46.572Z,70.92
2018-07-26T03:07:46.561Z,70.62
2018-07-26T03:08:46.545Z,71.12
2018-07-26T03:09:46.622Z,70.92
2018-07-26T03:10:46.525Z,71.12
2018-07-26T03:11:46.509Z,70.89
2018-07-26T03:12:46.507Z,70.69
2018-07-26T03:13:46.491Z,70.73
2018-07-26T03:14:46.559Z,70.59
2018-07-26T03:15:46.470Z,70.49
2018-07-26T03:16:46.460Z,70.79
2018-07-26T03:17:46.447Z,70.69
2018-07-26T03:18:46.463Z,70.53
2018-07-26T03:19:46.504Z,70.69
2018-07-26T03:20:46.444Z,70.39
2018-07-26T03:21:46.403Z,71.23
2018-07-26T03:22:46.387Z,71.62
2018-07-26T03:23:46.378Z,71.42
2018-07-26T03:24:46.470Z,71.46
2018-07-26T03:25:46.355Z,71.53
2018-07-26T03:26:46.346Z,72.23
2018-07-26T03:27:46.352Z,72.42
2018-07-26T03:28:46.320Z,72.26
2018-07-26T03:29:46.394Z,72.66
2018-07-26T03:30:46.303Z,72.36
2018-07-26T03:31:46.289Z,72.46
2018-07-26T03:32:46.278Z,72.66
2018-07-26T03:33:46.270Z,72.66
2018-07-26T03:34:46.333Z,72.16
2018-07-26T03:35:46.271Z,72.16
2018-07-26T03:36:46.240Z,72.53
2018-07-26T03:37:46.224Z,71.86
2018-07-26T03:38:46.246Z,71.53
2018-07-26T03:39:46.282Z,71.62
2018-07-26T03:40:46.202Z,71.33
2018-07-26T03:41:46.184Z,71.53
2018-07-26T03:42:46.167Z,71.83
2018-07-26T03:43:46.158Z,71.86
2018-07-26T03:44:46.249Z,71.86
2018-07-26T03:45:46.134Z,71.73
2018-07-26T03:46:46.122Z,71.73
2018-07-26T03:47:46.112Z,71.42
2018-07-26T03:48:46.100Z,71.83
2018-07-26T03:49:46.181Z,71.42
2018-07-26T03:50:46.080Z,71.83
2018-07-26T03:51:46.065Z,71.42
2018-07-26T03:52:46.073Z,71.42
2018-07-26T03:53:46.044Z,71.73
2018-07-26T03:54:46.121Z,71.96
2018-07-26T03:55:46.028Z,71.83
2018-07-26T03:56:46.012Z,71.53
2018-07-26T03:57:46.044Z,71.92
2018-07-26T03:58:46.013Z,71.83
2018-07-26T03:59:46.054Z,72.06
2018-07-26T04:00:45.972Z,72.16
2018-07-26T04:01:45.955Z,72.06
2018-07-26T04:02:45.943Z,71.96
2018-07-26T04:03:45.935Z,72.06
2018-07-26T04:04:45.995Z,72.56
2018-07-26T04:05:45.912Z,72.26
2018-07-26T04:06:45.907Z,72.36
2018-07-26T04:07:45.901Z,72.46
2018-07-26T04:08:45.875Z,72.16
2018-07-26T04:09:45.945Z,72.76
2018-07-26T04:10:45.866Z,72.13
2018-07-26T04:11:45.847Z,72.86
2018-07-26T04:12:45.835Z,72.66
2018-07-26T04:13:45.818Z,72.76
2018-07-26T04:14:45.886Z,72.56
2018-07-26T04:15:45.802Z,72.86
2018-07-26T04:16:45.775Z,72.76
2018-07-26T04:17:45.775Z,72.56
2018-07-26T04:18:45.778Z,72.56
2018-07-26T04:19:45.835Z,72.66
2018-07-26T04:20:45.745Z,72.16
2018-07-26T04:21:45.734Z,72.63
2018-07-26T04:22:45.722Z,72.63
2018-07-26T04:23:45.719Z,71.92
2018-07-26T04:24:45.772Z,72.53
2018-07-26T04:25:45.694Z,72.23
2018-07-26T04:26:45.699Z,72.23
2018-07-26T04:27:45.671Z,72.42
2018-07-26T04:28:45.670Z,72.03
2018-07-26T04:29:45.727Z,72.79
2018-07-26T04:30:45.653Z,72.13
2018-07-26T04:31:45.685Z,72.23
2018-07-26T04:32:45.629Z,72.23
2018-07-26T04:33:45.603Z,72.53
2018-07-26T04:34:45.690Z,72.42
2018-07-26T04:35:45.581Z,72.13
2018-07-26T04:36:45.569Z,72.03
2018-07-26T04:37:45.557Z,71.92
2018-07-26T04:38:45.555Z,72.42
2018-07-26T04:39:45.533Z,72.23
2018-07-26T04:40:45.594Z,71.73
2018-07-26T04:41:45.512Z,71.69
2018-07-26T04:42:45.512Z,72.19
2018-07-26T04:43:45.498Z,71.89
2018-07-26T04:44:45.477Z,71.19
2018-07-26T04:45:45.551Z,71.79
2018-07-26T04:46:45.468Z,71.49
2018-07-26T04:47:45.451Z,70.99
2018-07-26T04:48:45.423Z,70.76
2018-07-26T04:49:45.441Z,71.06
2018-07-26T04:50:45.493Z,70.66
2018-07-26T04:51:45.403Z,70.36
2018-07-26T04:52:45.404Z,70.26
2018-07-26T04:53:45.373Z,70.66
2018-07-26T04:54:45.367Z,70.26
2018-07-26T04:55:45.427Z,70.66
2018-07-26T04:56:45.352Z,70.46
2018-07-26T04:57:45.335Z,70.56
2018-07-26T04:58:45.323Z,70.36
2018-07-26T04:59:45.316Z,70.36
2018-07-26T05:00:45.398Z,69.93
2018-07-26T05:01:45.315Z,69.93
2018-07-26T05:02:45.284Z,69.39
2018-07-26T05:03:45.267Z,69.29
2018-07-26T05:04:45.240Z,69.49
2018-07-26T05:05:45.321Z,69.20
2018-07-26T05:06:45.240Z,68.36
2018-07-26T05:07:45.231Z,68.70
2018-07-26T05:08:45.220Z,67.96
2018-07-26T05:09:45.204Z,68.56
2018-07-26T05:10:45.261Z,68.76
2018-07-26T05:11:45.178Z,68.56
2018-07-26T05:12:45.172Z,68.46
2018-07-26T05:13:45.163Z,68.56
2018-07-26T05:14:45.151Z,68.66
2018-07-26T05:15:45.207Z,68.66
2018-07-26T05:16:45.125Z,68.06
2018-07-26T05:17:45.118Z,67.07
2018-07-26T05:18:45.104Z,68.03
2018-07-26T05:19:45.100Z,67.23
2018-07-26T05:20:45.150Z,67.33
2018-07-26T05:21:45.069Z,67.53
2018-07-26T05:22:45.063Z,67.20
2018-07-26T05:23:45.057Z,66.80
2018-07-26T05:24:45.038Z,66.70
2018-07-26T05:25:45.105Z,66.30
2018-07-26T05:26:45.002Z,66.20
2018-07-26T05:27:45.080Z,66.70
2018-07-26T05:28:45.000Z,66.17
2018-07-26T05:29:45.003Z,66.90
2018-07-26T05:30:45.048Z,66.07
2018-07-26T05:31:44.964Z,66.47
2018-07-26T05:32:44.952Z,66.97
2018-07-26T05:33:44.939Z,66.00
2018-07-26T05:34:44.927Z,66.17
2018-07-26T05:35:44.990Z,66.47
2018-07-26T05:36:44.906Z,66.97
2018-07-26T05:37:44.922Z,66.47
2018-07-26T05:38:44.884Z,66.47
2018-07-26T05:39:44.872Z,65.94
2018-07-26T05:40:44.936Z,66.27
2018-07-26T05:41:44.955Z,65.77
2018-07-26T05:42:44.843Z,65.94
2018-07-26T05:43:44.833Z,65.54
2018-07-26T05:44:44.819Z,66.04
2018-07-26T05:45:44.879Z,65.84
2018-07-26T05:46:44.797Z,66.04
2018-07-26T05:47:44.783Z,66.04
2018-07-26T05:48:44.790Z,66.04
2018-07-26T05:49:44.762Z,66.04
2018-07-26T05:50:44.880Z,65.94
2018-07-26T05:51:44.738Z,66.04
2018-07-26T05:52:44.725Z,66.24
2018-07-26T05:53:44.718Z,65.64
2018-07-26T05:54:44.707Z,66.24
2018-07-26T05:55:44.771Z,65.91
2018-07-26T05:56:44.687Z,66.11
2018-07-26T05:57:44.681Z,66.20
2018-07-26T05:58:44.667Z,65.61
2018-07-26T05:59:44.652Z,64.81
2018-07-26T06:00:44.716Z,65.58
2018-07-26T06:01:44.630Z,64.78
2018-07-26T06:02:44.617Z,64.28
2018-07-26T06:03:44.617Z,64.58
2018-07-26T06:04:44.606Z,64.45
2018-07-26T06:05:44.660Z,64.06
2018-07-26T06:06:44.572Z,63.36
2018-07-26T06:07:44.556Z,63.46
2018-07-26T06:08:44.563Z,62.43
2018-07-26T06:09:44.619Z,63.06
2018-07-26T06:10:44.609Z,63.33
2018-07-26T06:11:44.518Z,63.36
2018-07-26T06:12:44.507Z,63.85
2018-07-26T06:13:44.494Z,63.76
2018-07-26T06:14:44.489Z,63.46
2018-07-26T06:15:44.590Z,63.26
2018-07-26T06:16:44.485Z,63.13
2018-07-26T06:17:44.453Z,62.86
2018-07-26T06:18:44.439Z,63.66
2018-07-26T06:19:44.434Z,62.96
2018-07-26T06:20:44.581Z,62.76
2018-07-26T06:21:44.491Z,63.95
2018-07-26T06:22:44.398Z,63.85
2018-07-26T06:23:44.384Z,63.06
2018-07-26T06:24:44.374Z,62.76
2018-07-26T06:25:44.366Z,64.25
2018-07-26T06:26:44.428Z,64.42
2018-07-26T06:27:44.343Z,62.93
2018-07-26T06:28:44.326Z,63.92
2018-07-26T06:29:44.318Z,63.82
2018-07-26T06:30:44.304Z,64.03
2018-07-26T06:31:44.370Z,62.83
2018-07-26T06:32:44.288Z,63.49
2018-07-26T06:33:44.313Z,63.43
2018-07-26T06:34:44.261Z,63.40
2018-07-26T06:35:44.247Z,63.10
2018-07-26T06:36:44.311Z,62.40
2018-07-26T06:37:44.235Z,63.20
2018-07-26T06:38:44.219Z,63.20
2018-07-26T06:39:44.211Z,62.77
2018-07-26T06:40:44.192Z,64.19
2018-07-26T06:41:44.255Z,61.38
2018-07-26T06:42:44.174Z,61.98
2018-07-26T06:43:44.170Z,62.07
2018-07-26T06:44:44.154Z,62.24
2018-07-26T06:45:44.149Z,60.96
2018-07-26T06:46:44.195Z,61.94
2018-07-26T06:47:44.122Z,62.15
2018-07-26T06:48:44.105Z,61.35
2018-07-26T06:49:44.109Z,60.66
2018-07-26T06:50:44.093Z,60.53
2018-07-26T06:51:44.176Z,60.72
2018-07-26T06:52:44.066Z,61.02
2018-07-26T06:53:44.054Z,60.80
2018-07-26T06:54:44.046Z,59.61
2018-07-26T06:55:44.033Z,60.50
2018-07-26T06:56:44.089Z,60.80
2018-07-26T06:57:44.020Z,59.51
2018-07-26T06:58:44.001Z,59.21
2018-07-26T06:59:43.989Z,59.21
2018-07-26T07:00:44.010Z,60.20
2018-07-26T07:01:44.041Z,59.83
2018-07-26T07:02:43.960Z,58.91
2018-07-26T07:03:43.944Z,59.11
2018-07-26T07:04:43.936Z,59.61
2018-07-26T07:05:43.923Z,59.97
2018-07-26T07:06:43.980Z,58.26
2018-07-26T07:07:43.905Z,58.36
2018-07-26T07:08:43.889Z,58.16
2018-07-26T07:09:43.874Z,57.44
2018-07-26T07:10:43.874Z,56.25
2018-07-26T07:11:43.935Z,57.24
2018-07-26T07:12:43.848Z,57.64
2018-07-26T07:13:43.842Z,57.12
2018-07-26T07:14:43.827Z,56.62
2018-07-26T07:15:43.814Z,56.23
2018-07-26T07:16:43.883Z,56.72
2018-07-26T07:17:43.793Z,56.62
2018-07-26T07:18:43.788Z,56.10
2018-07-26T07:19:43.783Z,57.31
2018-07-26T07:20:43.762Z,57.39
2018-07-26T07:21:43.822Z,55.80
2018-07-26T07:22:43.740Z,55.21
2018-07-26T07:23:43.732Z,56.00
2018-07-26T07:24:43.740Z,55.70
2018-07-26T07:25:43.710Z,55.38
2018-07-26T07:26:43.757Z,54.42
2018-07-26T07:27:43.718Z,54.69
2018-07-26T07:28:43.943Z,54.79
2018-07-26T07:29:43.921Z,53.30
2018-07-26T07:30:43.882Z,53.20
2018-07-26T07:31:44.203Z,52.91
2018-07-26T07:32:43.823Z,52.98
2018-07-26T07:33:43.621Z,52.88
2018-07-26T07:34:43.633Z,52.39
2018-07-26T07:35:43.606Z,52.95
2018-07-26T07:36:43.849Z,52.17
2018-07-26T07:37:43.584Z,50.95
2018-07-26T07:38:43.721Z,49.67
2018-07-26T07:39:43.564Z,49.18
2018-07-26T07:40:43.555Z,50.07
2018-07-26T07:41:43.644Z,49.48
2018-07-26T07:42:43.533Z,50.66
2018-07-26T07:43:43.756Z,50.63
2018-07-26T07:44:43.580Z,50.63
2018-07-26T07:45:43.496Z,48.63
2018-07-26T07:46:43.561Z,48.46
2018-07-26T07:47:43.520Z,49.45
2018-07-26T07:48:43.470Z,47.85
2018-07-26T07:49:43.448Z,48.24
2018-07-26T07:50:43.439Z,46.98
2018-07-26T07:51:43.674Z,47.06
2018-07-26T07:52:43.600Z,47.13
2018-07-26T07:53:43.453Z,46.84
2018-07-26T07:54:43.608Z,47.43
2018-07-26T07:55:43.409Z,47.11
2018-07-26T07:56:43.495Z,46.72
2018-07-26T07:57:43.500Z,46.72
2018-07-26T07:58:43.357Z,46.32
2018-07-26T07:59:43.351Z,45.93
2018-07-26T08:00:43.339Z,47.13
2018-07-26T08:01:43.321Z,46.81
2018-07-26T08:02:43.381Z,45.43
2018-07-26T08:03:43.303Z,46.32
2018-07-26T08:04:43.337Z,47.28
2018-07-26T08:05:43.272Z,46.30
2018-07-26T08:06:43.334Z,46.69
2018-07-26T08:07:43.320Z,46.47
2018-07-26T08:08:43.252Z,46.08
2018-07-26T08:09:43.236Z,46.08
2018-07-26T08:10:43.227Z,45.98
2018-07-26T08:11:43.397Z,45.59
2018-07-26T08:12:43.730Z,45.49
2018-07-26T08:13:43.248Z,46.28
2018-07-26T08:14:43.250Z,45.78
2018-07-26T08:15:43.404Z,45.09
2018-07-26T08:16:43.162Z,45.78
2018-07-26T08:17:43.652Z,44.70
2018-07-26T08:18:43.151Z,45.29
2018-07-26T08:19:43.176Z,46.18
2018-07-26T08:20:43.128Z,45.88
2018-07-26T08:21:43.116Z,45.78
2018-07-26T08:22:43.155Z,46.84
2018-07-26T08:23:43.084Z,46.75
2018-07-26T08:24:43.075Z,45.67
2018-07-26T08:25:43.059Z,45.56
2018-07-26T08:26:43.046Z,44.88
2018-07-26T08:27:43.108Z,44.88
2018-07-26T08:28:43.034Z,43.68
2018-07-26T08:29:43.020Z,44.36
2018-07-26T08:30:43.015Z,44.56
2018-07-26T08:31:43.093Z,43.65
2018-07-26T08:32:43.072Z,44.46
2018-07-26T08:33:42.996Z,45.05
2018-07-26T08:34:42.970Z,44.24
2018-07-26T08:35:42.965Z,44.24
2018-07-26T08:36:42.951Z,45.23
2018-07-26T08:37:43.015Z,44.34
2018-07-26T08:38:42.920Z,44.05
2018-07-26T08:39:42.924Z,42.77
2018-07-26T08:40:42.908Z,44.32
2018-07-26T08:41:42.895Z,44.79
2018-07-26T08:42:42.977Z,43.02
2018-07-26T08:43:42.927Z,42.82
2018-07-26T08:44:42.864Z,41.84
2018-07-26T08:45:42.853Z,41.82
2018-07-26T08:46:42.837Z,41.53
2018-07-26T08:47:42.900Z,43.00
2018-07-26T08:48:42.816Z,41.51
2018-07-26T08:49:42.810Z,41.14
2018-07-26T08:50:42.796Z,41.11
2018-07-26T08:51:42.778Z,39.94
2018-07-26T08:52:42.890Z,41.21
2018-07-26T08:53:42.761Z,42.00
2018-07-26T08:54:42.739Z,41.41
2018-07-26T08:55:42.780Z,41.02
2018-07-26T08:56:42.738Z,41.51
2018-07-26T08:57:42.775Z,41.68
2018-07-26T08:58:42.706Z,41.78
2018-07-26T08:59:42.774Z,39.72
2018-07-26T09:00:42.673Z,39.84
2018-07-26T09:01:42.688Z,39.64
2018-07-26T09:02:42.745Z,40.92
2018-07-26T09:03:42.747Z,40.92
2018-07-26T09:04:42.650Z,41.14
2018-07-26T09:05:42.628Z,41.41
2018-07-26T09:06:42.616Z,40.82
2018-07-26T09:07:42.705Z,39.43
2018-07-26T09:08:42.592Z,39.80
2018-07-26T09:09:42.587Z,39.51
2018-07-26T09:10:42.572Z,39.41
2018-07-26T09:11:42.567Z,39.19
2018-07-26T09:12:42.631Z,39.39
2018-07-26T09:13:42.548Z,39.29
2018-07-26T09:14:42.545Z,39.39
2018-07-26T09:15:42.518Z,39.01
2018-07-26T09:16:42.506Z,39.01
2018-07-26T09:17:42.580Z,38.92
2018-07-26T09:18:42.496Z,38.80
2018-07-26T09:19:42.554Z,38.39
2018-07-26T09:20:42.469Z,39.66
2018-07-26T09:21:42.451Z,37.10
2018-07-26T09:22:42.534Z,37.19
2018-07-26T09:23:42.436Z,36.71
2018-07-26T09:24:42.427Z,37.00
2018-07-26T09:25:42.421Z,37.49
2018-07-26T09:26:42.409Z,36.61
2018-07-26T09:27:42.469Z,36.71
2018-07-26T09:28:42.399Z,36.80
2018-07-26T09:29:42.376Z,36.49
2018-07-26T09:30:42.363Z,36.79
2018-07-26T09:31:42.353Z,36.69
2018-07-26T09:32:42.406Z,36.98
2018-07-26T09:33:42.392Z,36.79
2018-07-26T09:34:42.325Z,36.79
2018-07-26T09:35:42.303Z,35.61
2018-07-26T09:36:42.303Z,36.69
2018-07-26T09:37:42.447Z,36.61
2018-07-26T09:38:42.274Z,36.41
2018-07-26T09:39:42.397Z,35.03
2018-07-26T09:40:42.281Z,35.73
2018-07-26T09:41:42.259Z,36.49
2018-07-26T09:42:42.233Z,35.71
2018-07-26T09:43:42.320Z,35.22
2018-07-26T09:44:42.357Z,35.89
2018-07-26T09:45:42.205Z,35.60
2018-07-26T09:46:42.226Z,35.87
2018-07-26T09:47:42.176Z,34.80
2018-07-26T09:48:42.952Z,34.78
2018-07-26T09:49:42.239Z,34.48
2018-07-26T09:50:42.488Z,34.88
2018-07-26T09:51:43.128Z,34.39
2018-07-26T09:52:42.134Z,34.57
2018-07-26T09:53:42.201Z,34.96
2018-07-26T09:54:42.118Z,33.59
2018-07-26T09:55:42.093Z,33.59
2018-07-26T09:56:42.082Z,34.67
2018-07-26T09:57:42.072Z,35.06
2018-07-26T09:58:42.151Z,33.30
2018-07-26T09:59:42.058Z,33.89
2018-07-26T10:00:42.044Z,33.61
2018-07-26T10:01:42.070Z,35.75
2018-07-26T10:02:42.029Z,33.51
2018-07-26T10:03:42.090Z,33.59
2018-07-26T10:04:42.209Z,34.77
2018-07-26T10:05:41.993Z,33.67
2018-07-26T10:06:41.990Z,33.85
2018-07-26T10:07:41.970Z,31.60
2018-07-26T10:08:42.452Z,32.21
2018-07-26T10:09:41.952Z,32.89
2018-07-26T10:10:42.084Z,33.28
2018-07-26T10:11:41.933Z,32.50
2018-07-26T10:12:41.922Z,32.99
2018-07-26T10:13:41.980Z,34.06
2018-07-26T10:14:41.889Z,32.50
2018-07-26T10:15:41.883Z,33.85
2018-07-26T10:16:41.862Z,32.19
2018-07-26T10:17:41.853Z,31.51
2018-07-26T10:18:42.104Z,31.40
2018-07-26T10:19:41.992Z,31.59
2018-07-26T10:20:41.873Z,31.70
2018-07-26T10:21:41.818Z,31.13
2018-07-26T10:22:41.916Z,32.40
2018-07-26T10:23:41.857Z,32.32
2018-07-26T10:24:41.793Z,32.11
2018-07-26T10:25:41.777Z,31.82
2018-07-26T10:26:41.757Z,32.39
2018-07-26T10:27:41.778Z,32.68
2018-07-26T10:28:41.807Z,32.09
2018-07-26T10:29:41.739Z,31.41
2018-07-26T10:30:41.718Z,31.02
2018-07-26T10:31:41.708Z,32.50
2018-07-26T10:32:41.697Z,31.82
2018-07-26T10:33:41.758Z,31.92
2018-07-26T10:34:41.684Z,33.18
2018-07-26T10:35:41.670Z,32.58
2018-07-26T10:36:41.659Z,32.19
2018-07-26T10:37:41.659Z,32.28
2018-07-26T10:38:41.711Z,32.08
2018-07-26T10:39:41.638Z,32.26
2018-07-26T10:40:41.850Z,32.26
2018-07-26T10:41:41.618Z,31.19
2018-07-26T10:42:41.593Z,31.28
2018-07-26T10:43:41.646Z,31.56
2018-07-26T10:44:41.572Z,30.19
2018-07-26T10:45:41.946Z,31.09
2018-07-26T10:46:41.595Z,32.16
2018-07-26T10:47:42.017Z,31.49
2018-07-26T10:48:41.637Z,31.28
2018-07-26T10:49:41.522Z,32.06
2018-07-26T10:50:41.569Z,30.68
2018-07-26T10:51:41.514Z,30.68
2018-07-26T10:52:41.563Z,31.46
2018-07-26T10:53:41.556Z,30.87
2018-07-26T10:54:41.477Z,31.25
2018-07-26T10:55:41.462Z,30.47
2018-07-26T10:56:41.617Z,31.53
2018-07-26T10:57:41.650Z,30.87
2018-07-26T10:58:41.509Z,30.49
2018-07-26T10:59:41.425Z,30.67
2018-07-26T11:00:41.406Z,32.43
2018-07-26T11:01:41.402Z,31.17
2018-07-26T11:02:41.390Z,30.87
2018-07-26T11:03:41.480Z,30.47
2018-07-26T11:04:41.376Z,30.96
2018-07-26T11:05:41.366Z,30.18
2018-07-26T11:06:41.368Z,29.78
2018-07-26T11:07:41.339Z,29.49
2018-07-26T11:08:41.389Z,29.21
2018-07-26T11:09:41.363Z,29.91
2018-07-26T11:10:41.315Z,29.52
2018-07-26T11:11:41.303Z,29.71
2018-07-26T11:12:41.420Z,29.71
2018-07-26T11:13:41.365Z,30.18
2018-07-26T11:14:41.277Z,29.50
2018-07-26T11:15:41.264Z,29.60
2018-07-26T11:16:41.448Z,29.49
2018-07-26T11:17:41.244Z,29.08
2018-07-26T11:18:41.298Z,30.74
2018-07-26T11:19:41.224Z,30.44
2018-07-26T11:20:41.199Z,29.18
2018-07-26T11:21:41.192Z,28.58
2018-07-26T11:22:41.195Z,30.04
2018-07-26T11:23:41.173Z,29.36
2018-07-26T11:24:41.216Z,29.75
2018-07-26T11:25:42.218Z,29.06
2018-07-26T11:26:41.131Z,28.39
2018-07-26T11:27:41.242Z,28.97
2018-07-26T11:28:41.185Z,29.46
2018-07-26T11:29:41.231Z,29.05
2018-07-26T11:30:41.297Z,29.25
2018-07-26T11:31:41.098Z,29.35
2018-07-26T11:32:41.083Z,28.76
2018-07-26T11:33:41.078Z,29.46
2018-07-26T11:34:41.174Z,27.89
2018-07-26T11:35:41.083Z,28.08
2018-07-26T11:36:41.062Z,28.47
2018-07-26T11:37:41.048Z,28.57
2018-07-26T11:38:42.016Z,28.07
2018-07-26T11:39:41.087Z,29.33
2018-07-26T11:40:40.988Z,28.55
2018-07-26T11:41:41.001Z,29.14
2018-07-26T11:42:40.989Z,28.65
2018-07-26T11:43:40.992Z,28.18
2018-07-26T11:44:41.053Z,28.57
2018-07-26T11:45:41.011Z,29.16
2018-07-26T11:46:40.960Z,29.08
2018-07-26T11:47:40.915Z,31.14
2018-07-26T11:48:40.929Z,30.75
2018-07-26T11:49:40.988Z,29.18
2018-07-26T11:50:40.884Z,29.06
2018-07-26T11:51:40.886Z,28.78
2018-07-26T11:52:40.917Z,28.58
2018-07-26T11:53:40.908Z,28.86
2018-07-26T11:54:40.938Z,28.75
2018-07-26T11:55:40.839Z,28.36
2018-07-26T11:56:40.832Z,28.26
2018-07-26T11:57:40.813Z,28.28
2018-07-26T11:58:40.798Z,28.78
2018-07-26T11:59:40.908Z,28.78
2018-07-26T12:00:40.789Z,28.49
2018-07-26T12:01:40.804Z,28.66
2018-07-26T12:02:40.787Z,28.65
2018-07-26T12:03:40.762Z,28.15
2018-07-26T12:04:40.831Z,27.67
2018-07-26T12:05:41.088Z,27.96
2018-07-26T12:06:40.809Z,28.23
2018-07-26T12:07:40.723Z,27.18
2018-07-26T12:08:40.708Z,27.10
2018-07-26T12:09:40.770Z,28.36
2018-07-26T12:10:40.716Z,29.24
2018-07-26T12:11:40.811Z,27.57
2018-07-26T12:12:40.677Z,28.44
2018-07-26T12:13:40.656Z,28.25
2018-07-26T12:14:40.794Z,27.17
2018-07-26T12:15:40.708Z,26.97
2018-07-26T12:16:40.625Z,26.78
2018-07-26T12:17:42.302Z,26.39
2018-07-26T12:18:40.638Z,25.99
2018-07-26T12:19:42.273Z,26.39
2018-07-26T12:20:40.590Z,26.68
2018-07-26T12:21:40.562Z,26.76
2018-07-26T12:22:41.125Z,26.57
2018-07-26T12:23:40.546Z,26.68
2018-07-26T12:24:42.329Z,26.59
2018-07-26T12:25:40.522Z,25.62
2018-07-26T12:26:40.592Z,25.42
2018-07-26T12:27:41.244Z,25.99
2018-07-26T12:28:40.527Z,25.59
2018-07-26T12:29:42.451Z,26.75
2018-07-26T12:30:40.468Z,25.48
2018-07-26T12:31:41.169Z,25.29
2018-07-26T12:32:52.427Z,25.08
2018-07-26T12:33:40.870Z,25.08
2018-07-26T12:34:41.263Z,25.74
2018-07-26T12:37:37.597Z,24.40
2018-07-26T12:38:35.695Z,24.99
2018-07-26T12:39:36.010Z,25.49
2018-07-26T12:40:35.792Z,25.59
2018-07-26T12:41:35.608Z,25.77
2018-07-26T12:42:35.787Z,25.30
2018-07-26T12:43:35.629Z,25.41
2018-07-26T12:44:35.959Z,25.32
2018-07-26T12:45:35.564Z,25.52
2018-07-26T12:46:35.562Z,26.59
2018-07-26T12:47:35.617Z,25.81
2018-07-26T12:48:35.535Z,25.60
2018-07-26T12:49:35.973Z,25.59
2018-07-26T12:50:35.566Z,25.19
2018-07-26T12:51:35.513Z,25.20
2018-07-26T12:52:35.495Z,24.72
2018-07-26T12:53:35.490Z,25.02
2018-07-26T12:54:35.480Z,25.41
2018-07-26T12:55:35.973Z,25.30
2018-07-26T12:56:35.469Z,25.49
2018-07-26T12:57:35.674Z,25.29
2018-07-26T12:58:35.674Z,25.78
2018-07-26T12:59:35.582Z,26.45
2018-07-26T13:00:40.627Z,25.09
2018-07-26T13:01:35.504Z,24.61
2018-07-26T13:02:35.386Z,24.22
2018-07-26T13:03:35.393Z,24.41
2018-07-26T13:04:35.505Z,24.91